Shonai Airport Shonai JP
ICAO: RJSY
IATA:
Category: Medium
Scheduled Services:

Elevation: 86 ft
TransAlt. 0 ft.

Airport Communications:
RDO:118.8

RJSY Zoom In..

If you have problems with the map follow the link
https://www.worldairports.se/pages/airport.php?
ICAO=RJSY

Runways:

(A) RW 09 length 6562 ft width 148 ft
ILS 110.90 / hdg 88

(B) RW 27 length 6562 ft width 148 ft
LOC 111.50 / hdg 268

Location; RJSY
Day. 13 / Time. 12.00 Zulu
* QNH: 1016
* Temperature: 02° c. 35.6°f.
* Wind from: 090° Speed 06 kn.
Dewpoint: 01° c.
Visibility: 10 km or more.
Clouds: Few 1500 ft.
Clouds: Scattered 2000 ft.
Clouds: Broken 3500 ft.

RJSY 131200Z 09006KT 9999 FEW015 SCT020 BKN035 02/01 Q1016


Wind From 090°
Speed 06 kn.

 
 
jpsmedia.com for Web Design worldairports.se 2018   terms of use